Time;durP1;ratioP1;P1;durP2;ratioP2;P2;SDS_P1;SDS_P2;PMS_P1;PMS_P2;Temp;Humidity;BMP_temperature;BMP_pressure;BME280_temperature;BME280_humidity;BME280_pressure;Samples;Min_cycle;Max_cycle;Signal;HPM_P1;HPM_P2
2022/02/26 00:01:30;;;;;;;;;11.00;7.00;;;;;5.51;50.44;100295.09;6283520;20;3473213;-44
2022/02/26 00:03:59;;;;;;;;;7.00;7.00;;;;;5.59;50.46;100293.06;6302675;20;1810789;-44
2022/02/26 00:06:28;;;;;;;;;8.50;6.50;;;;;5.58;50.46;100294.00;6331595;20;1808620;-46
2022/02/26 00:08:56;;;;;;;;;10.75;6.75;;;;;5.52;50.73;100303.94;6333763;20;1806169;-44
2022/02/26 00:11:25;;;;;;;;;8.75;8.75;;;;;5.25;51.51;100295.88;6334226;20;1809771;-44
2022/02/26 00:13:53;;;;;;;;;6.75;6.75;;;;;5.15;51.54;100300.59;6334325;20;1813981;-44
2022/02/26 00:16:22;;;;;;;;;10.00;7.00;;;;;5.14;51.62;100303.31;6313785;20;2758624;-44
2022/02/26 00:18:50;;;;;;;;;8.50;6.00;;;;;5.58;50.95;100299.31;6299856;20;1813915;-44
2022/02/26 00:21:19;;;;;;;;;7.00;7.00;;;;;5.60;50.78;100296.59;6334935;20;1808674;-46
2022/02/26 00:23:47;;;;;;;;;9.50;9.50;;;;;5.45;51.32;100298.81;6334795;20;1816714;-46
2022/02/26 00:26:19;;;;;;;;;8.00;8.00;;;;;5.13;51.64;100298.91;6313725;20;2745158;-44
2022/02/26 00:28:48;;;;;;;;;9.00;8.00;;;;;5.23;51.89;100306.56;6283460;20;2742999;-46
2022/02/26 00:31:17;;;;;;;;;7.75;7.75;;;;;5.48;51.43;100313.84;6302381;20;1819174;-44
2022/02/26 00:33:46;;;;;;;;;7.00;7.00;;;;;5.16;52.02;100315.69;6339779;20;1815725;-44
2022/02/26 00:36:14;;;;;;;;;13.00;9.00;;;;;5.00;52.62;100317.91;6315127;20;2760684;-44
2022/02/26 00:38:44;;;;;;;;;7.00;6.50;;;;;4.77;52.89;100305.25;6282823;20;2728500;-44
2022/02/26 00:41:12;;;;;;;;;12.00;8.00;;;;;4.83;53.24;100297.09;6312273;20;2769256;-47
2022/02/26 00:43:40;;;;;;;;;11.00;9.50;;;;;4.91;52.49;100312.84;6283515;20;2764884;-45
2022/02/26 00:46:09;;;;;;;;;10.00;9.00;;;;;5.42;51.93;100316.66;6284192;20;2748225;-48
2022/02/26 00:51:23;;;;;;;;;7.00;7.00;;;;;5.47;51.37;100310.28;6316454;20;2739943;-44
2022/02/26 00:53:52;;;;;;;;;7.00;7.00;;;;;5.52;50.99;100312.81;6332217;20;1819267;-44
2022/02/26 00:56:21;;;;;;;;;6.25;6.25;;;;;5.47;51.77;100315.59;6330908;20;1814905;-44
2022/02/26 00:58:53;;;;;;;;;11.00;7.00;;;;;5.44;51.73;100313.03;6312581;20;2758636;-45
2022/02/26 01:01:22;;;;;;;;;7.00;7.00;;;;;5.32;52.18;100313.44;6300648;20;1812788;-45
2022/02/26 01:03:52;;;;;;;;;7.00;7.00;;;;;5.57;51.23;100313.53;6316267;20;2745253;-44
2022/02/26 01:06:21;;;;;;;;;9.50;9.50;;;;;5.46;51.36;100305.88;6328719;20;1815409;-44
2022/02/26 01:08:51;;;;;;;;;10.00;9.25;;;;;5.47;50.85;100312.94;6331418;20;1813975;-45
2022/02/26 01:11:19;;;;;;;;;7.00;6.00;;;;;5.09;52.36;100318.56;6313139;20;2746080;-44
2022/02/26 01:13:47;;;;;;;;;10.50;6.50;;;;;5.44;51.17;100318.38;6300909;20;1817071;-44
2022/02/26 01:16:18;;;;;;;;;8.33;6.67;;;;;5.19;51.66;100312.06;6356410;20;1804453;-44
2022/02/26 01:18:51;;;;;;;;;14.86;10.86;;;;;5.40;51.16;100316.72;6323975;20;1812490;-45
2022/02/26 01:21:20;;;;;;;;;10.00;8.00;;;;;5.44;50.99;100315.69;6311555;20;2766023;-44
2022/02/26 01:23:48;;;;;;;;;14.00;11.00;;;;;5.25;51.65;100317.19;6279283;20;2779437;-44
2022/02/26 01:26:20;;;;;;;;;11.00;9.17;;;;;5.37;51.26;100313.28;6321711;20;1812215;-44
2022/02/26 01:28:49;;;;;;;;;9.67;7.67;;;;;5.46;50.82;100311.22;6284652;20;3460651;-43
2022/02/26 01:31:21;;;;;;;;;9.60;5.80;;;;;5.28;51.32;100306.44;6354169;20;2477479;-44
2022/02/26 01:33:49;;;;;;;;;6.00;6.00;;;;;5.33;51.06;100309.84;6330464;20;1819059;-47
2022/02/26 01:36:18;;;;;;;;;21.00;15.67;;;;;5.10;51.49;100306.97;6311918;20;3536807;-44
2022/02/26 01:38:47;;;;;;;;;21.00;17.00;;;;;5.35;51.03;100305.34;6309847;20;3566889;-44
2022/02/26 01:41:15;;;;;;;;;21.33;15.00;;;;;5.24;51.55;100299.47;6277604;20;3557516;-44
2022/02/26 01:43:44;;;;;;;;;19.33;18.00;;;;;5.15;51.52;100299.75;6311735;20;3558038;-44
2022/02/26 01:46:13;;;;;;;;;22.00;18.00;;;;;5.00;52.29;100285.06;6312373;20;3554418;-44
2022/02/26 01:48:42;;;;;;;;;22.00;18.00;;;;;5.02;51.93;100293.91;6310193;20;2829480;-44
2022/02/26 01:51:10;;;;;;;;;27.00;21.50;;;;;5.12;52.31;100287.38;6282650;20;2839857;-46
2022/02/26 01:53:39;;;;;;;;;25.50;22.50;;;;;5.22;52.00;100290.66;6282274;20;2835802;-44
2022/02/26 01:56:10;;;;;;;;;9.00;6.00;;;;;5.13;51.68;100286.47;6282040;20;2757547;-44
2022/02/26 01:58:39;;;;;;;;;8.00;5.00;;;;;5.00;52.33;100285.97;6310422;20;2750252;-45
2022/02/26 02:01:11;;;;;;;;;6.00;6.00;;;;;4.87;52.31;100284.59;6322685;20;1799234;-45
2022/02/26 02:03:40;;;;;;;;;6.00;6.00;;;;;5.03;52.27;100285.88;6289263;20;3454400;-44
2022/02/26 02:06:12;;;;;;;;;6.50;6.00;;;;;4.95;52.40;100287.00;6335221;20;1808628;-44
2022/02/26 02:08:43;;;;;;;;;8.00;6.00;;;;;4.71;52.93;100288.56;6318520;20;3457526;-44
2022/02/26 02:11:11;;;;;;;;;6.00;6.00;;;;;4.98;51.78;100282.47;6316982;20;2748221;-46
2022/02/26 02:13:40;;;;;;;;;5.00;5.00;;;;;4.80;52.23;100285.66;6335610;20;1822274;-45
2022/02/26 02:16:08;;;;;;;;;7.25;5.50;;;;;4.72;52.47;100279.69;6337016;20;1813870;-45
2022/02/26 02:18:37;;;;;;;;;10.50;5.50;;;;;4.77;52.00;100293.75;6316681;20;2760764;-44
2022/02/26 02:21:06;;;;;;;;;6.75;6.75;;;;;4.95;51.94;100292.31;6303329;20;1811815;-45
2022/02/26 02:23:33;;;;;;;;;8.00;6.00;;;;;4.80;52.24;100296.31;6317486;20;2756679;-49
2022/02/26 02:26:02;;;;;;;;;4.25;4.25;;;;;4.83;52.17;100299.75;6303871;20;1816960;-44
2022/02/26 02:28:33;;;;;;;;;1.00;1.00;;;;;4.83;51.80;100298.88;6319449;20;3438824;-44
2022/02/26 02:31:01;;;;;;;;;6.00;4.00;;;;;4.60;52.79;100299.50;6335290;20;1825117;-44
2022/02/26 02:33:39;;;;;;;;;5.00;5.00;;;;;4.72;52.32;100295.66;6336995;20;1823278;-45
2022/02/26 02:36:08;;;;;;;;;9.00;5.00;;;;;4.67;52.19;100286.94;6335801;20;1818086;-46
2022/02/26 02:38:36;;;;;;;;;9.50;9.00;;;;;4.77;52.13;100299.06;6314594;20;2756519;-44
2022/02/26 02:41:05;;;;;;;;;6.50;6.00;;;;;4.68;52.27;100299.31;6317950;20;2748180;-44
2022/02/26 02:43:33;;;;;;;;;9.50;7.50;;;;;4.15;53.81;100298.00;6336345;20;1818578;-44
2022/02/26 02:46:03;;;;;;;;;8.33;5.67;;;;;4.14;54.57;100306.03;6339197;20;1800271;-44
2022/02/26 02:48:31;;;;;;;;;8.00;5.00;;;;;3.82;56.14;100304.16;6319338;20;2745108;-45
2022/02/26 02:51:00;;;;;;;;;8.00;5.75;;;;;4.27;53.73;100306.59;6336485;20;1819087;-44
2022/02/26 02:53:29;;;;;;;;;9.00;7.50;;;;;4.09;54.78;100316.78;6332748;20;1818004;-44
2022/02/26 02:55:57;;;;;;;;;7.33;6.00;;;;;3.83;55.02;100327.16;6317081;20;3463757;-45
2022/02/26 02:58:30;;;;;;;;;8.50;7.50;;;;;4.03;54.40;100329.34;6304571;20;1818672;-44
2022/02/26 03:00:59;;;;;;;;;16.00;14.00;;;;;3.85;55.16;100333.31;6315818;20;2798178;-45
2022/02/26 03:03:28;;;;;;;;;14.60;12.80;;;;;3.70;55.90;100335.41;6309780;20;2782560;-47
2022/02/26 03:05:57;;;;;;;;;16.67;12.67;;;;;3.94;55.10;100333.97;6285847;20;2796108;-43
2022/02/26 03:08:27;;;;;;;;;18.33;16.00;;;;;4.10;54.31;100345.09;6314700;20;3564829;-44
2022/02/26 03:10:58;;;;;;;;;17.80;13.60;;;;;3.73;56.03;100351.28;6340524;20;2825376;-44
2022/02/26 03:13:29;;;;;;;;;11.67;9.50;;;;;3.54;56.50;100357.06;6324557;20;1821134;-45
2022/02/26 03:15:59;;;;;;;;;17.00;13.00;;;;;3.48;56.73;100350.97;6286097;20;2798230;-44
2022/02/26 03:18:29;;;;;;;;;16.00;11.00;;;;;3.72;55.49;100356.63;6284412;20;2796223;-44
2022/02/26 03:20:57;;;;;;;;;8.00;8.00;;;;;3.50;55.85;100359.78;6287167;20;2744173;-44
2022/02/26 03:23:24;;;;;;;;;9.00;9.00;;;;;3.74;55.62;100354.81;6316265;20;2745051;-46
2022/02/26 03:25:52;;;;;;;;;9.00;6.00;;;;;3.50;56.10;100358.88;6291051;20;2029556;-46
2022/02/26 03:28:20;;;;;;;;;14.00;11.00;;;;;3.64;56.04;100366.56;6313813;20;2780459;-51
2022/02/26 03:30:49;;;;;;;;;15.50;9.75;;;;;3.55;56.35;100372.06;6301908;20;1829633;-45
2022/02/26 03:33:17;;;;;;;;;18.00;9.00;;;;;4.04;54.68;100361.19;6316552;20;2756551;-46
2022/02/26 03:35:48;;;;;;;;;12.00;9.83;;;;;3.74;55.21;100363.66;6358139;20;1808618;-44
2022/02/26 03:38:16;;;;;;;;;9.50;9.50;;;;;3.49;55.93;100362.44;6305393;20;1811830;-44
2022/02/26 03:40:45;;;;;;;;;9.00;9.00;;;;;3.68;55.77;100363.78;6332913;20;1819124;-45
2022/02/26 03:43:14;;;;;;;;;15.60;12.40;;;;;3.64;56.27;100362.13;6340467;20;2789876;-45
2022/02/26 03:45:43;;;;;;;;;18.33;14.00;;;;;3.84;55.23;100364.31;6285054;20;3529672;-45
2022/02/26 03:48:11;;;;;;;;;14.00;12.00;;;;;3.57;56.09;100365.81;6314982;20;2786036;-44
2022/02/26 03:50:40;;;;;;;;;8.33;8.00;;;;;3.84;55.52;100363.44;6284488;20;3457522;-46
2022/02/26 03:53:10;;;;;;;;;22.17;16.50;;;;;3.73;55.38;100363.69;6338685;20;2839912;-44
2022/02/26 03:55:40;;;;;;;;;12.00;10.00;;;;;3.81;55.17;100363.50;6315441;20;2779439;-44
2022/02/26 03:58:08;;;;;;;;;13.00;13.00;;;;;3.76;55.17;100368.06;6285274;20;2789846;-45
2022/02/26 04:00:38;;;;;;;;;11.25;9.25;;;;;3.93;54.77;100365.91;6298993;20;1814929;-48
2022/02/26 04:03:06;;;;;;;;;9.25;9.25;;;;;3.82;55.12;100376.78;6333469;20;1819108;-45
2022/02/26 04:05:35;;;;;;;;;8.00;8.00;;;;;3.83;54.99;100382.94;6315910;20;2737874;-50
2022/02/26 04:08:03;;;;;;;;;13.00;11.00;;;;;3.73;55.38;100372.53;6314223;20;2783614;-47
2022/02/26 04:10:31;;;;;;;;;15.00;15.00;;;;;3.72;55.78;100386.72;6281928;20;2791954;-46
2022/02/26 04:12:59;;;;;;;;;19.50;12.50;;;;;3.84;55.22;100382.91;6283684;20;2797262;-46
2022/02/26 04:15:27;;;;;;;;;15.00;10.50;;;;;3.58;55.60;100394.13;6282544;20;2772154;-45
2022/02/26 04:17:56;;;;;;;;;14.80;12.20;;;;;3.52;56.55;100391.59;6304187;20;2796090;-45
2022/02/26 04:20:26;;;;;;;;;17.40;14.00;;;;;3.33;56.76;100388.44;6303522;20;2821142;-45
2022/02/26 04:22:54;;;;;;;;;14.50;11.00;;;;;3.59;56.36;100395.84;6278830;20;2783690;-45
2022/02/26 04:25:22;;;;;;;;;14.00;11.00;;;;;3.70;55.73;100396.50;6279509;20;2792958;-44
2022/02/26 04:27:52;;;;;;;;;16.00;14.40;;;;;3.71;56.00;100402.66;6306425;20;2833740;-44
2022/02/26 04:30:20;;;;;;;;;15.00;13.67;;;;;3.88;55.18;100402.31;6282129;20;2789885;-44
2022/02/26 04:32:51;;;;;;;;;13.00;12.00;;;;;3.74;55.37;100415.91;6314872;20;2782546;-44
2022/02/26 04:35:19;;;;;;;;;9.00;9.00;;;;;3.87;55.33;100408.50;6303310;20;1810556;-44
2022/02/26 04:37:48;;;;;;;;;12.00;10.00;;;;;3.83;55.78;100409.50;6312081;20;2782544;-47
2022/02/26 04:40:18;;;;;;;;;14.00;12.20;;;;;3.67;56.66;100401.00;6306700;20;2787771;-44
2022/02/26 04:42:48;;;;;;;;;72.67;52.67;;;;;3.91;55.70;100410.22;6279782;20;2890141;-44
2022/02/26 04:45:18;;;;;;;;;63.00;46.67;;;;;3.90;55.18;100416.44;6314493;20;2867982;-43
2022/02/26 04:47:47;;;;;;;;;63.00;51.00;;;;;3.92;55.23;100409.28;6313869;20;2867976;-44
2022/02/26 04:50:15;;;;;;;;;43.50;39.00;;;;;3.56;56.67;100406.56;6276485;20;2851345;-44
2022/02/26 04:52:45;;;;;;;;;31.00;25.67;;;;;3.89;55.62;100409.38;6282968;20;2855517;-43
2022/02/26 04:55:14;;;;;;;;;16.50;14.00;;;;;3.80;55.56;100412.25;6313007;20;2821153;-43
2022/02/26 04:57:42;;;;;;;;;12.00;12.00;;;;;3.86;55.01;100420.94;6282711;20;2792238;-44
2022/02/26 05:00:11;;;;;;;;;12.00;9.00;;;;;3.91;55.18;100427.00;6280755;20;2760733;-43
2022/02/26 05:02:41;;;;;;;;;10.00;9.00;;;;;3.72;56.03;100433.66;6299023;20;1822297;-46
2022/02/26 05:05:10;;;;;;;;;9.50;8.00;;;;;3.79;55.59;100439.69;6330352;20;1810841;-44
2022/02/26 05:07:38;;;;;;;;;8.50;8.50;;;;;4.02;54.61;100440.06;6332402;20;1825361;-45
2022/02/26 05:10:09;;;;;;;;;15.50;8.00;;;;;4.04;54.52;100448.00;6329922;20;1815004;-43
2022/02/26 05:12:37;;;;;;;;;9.00;8.00;;;;;4.17;54.26;100446.81;6316028;20;2750241;-44
2022/02/26 05:15:05;;;;;;;;;15.00;12.00;;;;;4.09;54.35;100439.03;6312036;20;2792002;-43
2022/02/26 05:17:38;;;;;;;;;25.00;23.00;;;;;3.93;54.94;100442.94;6282556;20;3572311;-44
2022/02/26 05:20:08;;;;;;;;;38.00;31.50;;;;;3.88;54.84;100445.69;6275426;20;2500345;-44
2022/02/26 05:22:39;;;;;;;;;91.67;64.33;;;;;4.17;54.44;100447.69;6278736;20;3640861;-44
2022/02/26 05:25:11;;;;;;;;;92.00;66.00;;;;;4.04;54.93;100448.00;6310648;20;3646099;-43
2022/02/26 05:27:42;;;;;;;;;65.67;47.00;;;;;4.09;54.27;100449.66;6311429;20;2869024;-45
2022/02/26 05:30:13;;;;;;;;;23.50;19.00;;;;;3.93;54.90;100456.22;6313080;20;2821135;-46
2022/02/26 05:32:43;;;;;;;;;19.67;17.67;;;;;4.00;54.98;100457.81;6278605;20;3575232;-44
2022/02/26 05:35:13;;;;;;;;;31.00;27.00;;;;;4.02;54.36;100463.97;6279807;20;2849227;-46
2022/02/26 05:37:41;;;;;;;;;18.00;14.00;;;;;3.79;55.30;100471.56;6281069;20;2804809;-45
2022/02/26 05:40:12;;;;;;;;;30.50;23.00;;;;;3.81;55.26;100477.72;6277381;20;2500241;-44
2022/02/26 05:42:41;;;;;;;;;35.50;30.00;;;;;4.02;54.91;100471.94;6280705;20;2845136;-44
2022/02/26 05:45:12;;;;;;;;;31.00;27.00;;;;;3.84;55.61;100475.00;6280806;20;2865990;-48
2022/02/26 05:47:43;;;;;;;;;35.33;28.17;;;;;3.88;54.94;100471.38;6302988;20;2842133;-47
2022/02/26 05:50:14;;;;;;;;;17.00;13.00;;;;;3.44;58.00;100478.47;6310218;20;3551329;-43
2022/02/26 05:52:42;;;;;;;;;14.00;11.00;;;;;3.78;55.98;100489.28;6279017;20;2789966;-44
2022/02/26 05:55:12;;;;;;;;;10.20;8.00;;;;;3.69;56.50;100482.41;6306684;20;2762244;-44
2022/02/26 05:57:41;;;;;;;;;17.00;14.00;;;;;3.72;56.14;100487.63;6312318;20;3554459;-44
2022/02/26 06:00:10;;;;;;;;;30.00;25.00;;;;;3.70;56.14;100488.56;6307348;20;2500348;-44
2022/02/26 06:02:39;;;;;;;;;49.00;40.50;;;;;3.42;57.58;100482.94;6282059;20;2862758;-44
2022/02/26 06:05:08;;;;;;;;;21.50;19.50;;;;;3.70;57.71;100489.44;6281317;20;2831498;-44
2022/02/26 06:07:36;;;;;;;;;33.50;24.00;;;;;3.64;57.27;100492.22;6276011;20;2496155;-45
2022/02/26 06:10:05;;;;;;;;;24.67;21.00;;;;;4.05;56.24;100495.78;6279399;20;3562771;-44
2022/02/26 06:12:34;;;;;;;;;16.33;16.33;;;;;3.73;56.94;100500.00;6310444;20;3571084;-47
2022/02/26 06:15:05;;;;;;;;;26.33;22.67;;;;;3.58;57.78;100505.66;6311038;20;3571037;-45
2022/02/26 06:17:36;;;;;;;;;15.40;12.40;;;;;3.87;56.64;100510.34;6304309;20;2800310;-46
2022/02/26 06:20:07;;;;;;;;;25.67;16.33;;;;;3.74;56.79;100517.69;6278480;20;3574707;-47
2022/02/26 06:22:35;;;;;;;;;30.50;26.50;;;;;4.16;55.22;100515.03;6276289;20;2498201;-44
2022/02/26 06:25:04;;;;;;;;;39.50;29.00;;;;;3.87;55.83;100520.97;6277302;20;2500287;-45
2022/02/26 06:27:44;;;;;;;;;43.00;32.50;;;;;3.95;56.99;100520.81;6279099;20;2867002;-44
2022/02/26 06:30:14;;;;;;;;;24.50;19.00;;;;;4.05;55.85;100526.81;6280488;20;2826312;-45
2022/02/26 06:32:43;;;;;;;;;38.00;29.00;;;;;4.36;55.44;100527.00;6277577;20;2870189;-43
2022/02/26 06:35:13;;;;;;;;;46.00;38.33;;;;;4.32;55.36;100526.22;6279532;20;2875338;-44
2022/02/26 06:37:42;;;;;;;;;35.00;29.50;;;;;3.72;56.29;100527.47;6309307;20;2846330;-45
2022/02/26 06:40:11;;;;;;;;;28.33;24.67;;;;;4.02;55.70;100522.41;6276238;20;3578364;-44
2022/02/26 06:42:39;;;;;;;;;20.00;17.00;;;;;4.50;55.13;100530.25;6281719;20;2500266;-44
2022/02/26 06:45:08;;;;;;;;;25.00;21.00;;;;;4.69;54.54;100535.13;6279195;20;2500264;-45
2022/02/26 06:47:35;;;;;;;;;25.50;22.00;;;;;4.76;54.11;100534.06;6280878;20;2839888;-44
2022/02/26 06:50:05;;;;;;;;;21.00;19.00;;;;;4.66;54.89;100537.84;6285755;20;3555465;-43
2022/02/26 06:52:34;;;;;;;;;25.67;17.00;;;;;4.96;53.78;100534.44;6281692;20;3560779;-43
2022/02/26 06:55:04;;;;;;;;;21.50;18.00;;;;;4.83;53.89;100536.53;6314872;20;2829439;-42
2022/02/26 06:57:47;;;;;;;;;38.00;28.50;;;;;5.03;53.53;100536.03;6281407;20;2500247;-43
2022/02/26 07:00:17;;;;;;;;;16.00;10.00;;;;;5.01;53.46;100531.69;6283957;20;2802529;-43
2022/02/26 07:02:45;;;;;;;;;25.00;18.00;;;;;4.90;54.08;100539.94;6284448;20;2833649;-44
2022/02/26 07:05:14;;;;;;;;;21.00;21.00;;;;;5.20;52.91;100543.59;6280787;20;3561692;-44
2022/02/26 07:07:42;;;;;;;;;29.00;23.00;;;;;5.09;53.38;100539.47;6313409;20;2500289;-44
2022/02/26 07:10:12;;;;;;;;;30.00;25.00;;;;;4.92;54.10;100540.75;6281061;20;2500282;-43
2022/02/26 07:12:40;;;;;;;;;32.00;26.00;;;;;5.16;53.20;100546.38;6285889;20;2851282;-44
2022/02/26 07:15:09;;;;;;;;;22.33;15.00;;;;;5.27;53.05;100539.88;6283073;20;3545004;-43
2022/02/26 07:17:40;;;;;;;;;25.67;17.67;;;;;5.24;52.92;100544.41;6313398;20;3561894;-43
2022/02/26 07:20:09;;;;;;;;;19.50;19.50;;;;;5.05;53.23;100542.22;6282326;20;2820060;-43
2022/02/26 07:22:39;;;;;;;;;17.67;17.67;;;;;5.11;53.50;100553.59;6284175;20;3547096;-44
2022/02/26 07:25:10;;;;;;;;;25.00;20.00;;;;;5.17;53.69;100556.13;6338864;20;2835208;-46
2022/02/26 07:27:41;;;;;;;;;21.00;18.00;;;;;4.97;54.82;100560.13;6314987;20;3559578;-43
2022/02/26 07:30:10;;;;;;;;;26.50;22.00;;;;;5.04;55.42;100553.75;6311958;20;2500270;-45
2022/02/26 07:32:39;;;;;;;;;30.00;23.33;;;;;5.34;54.91;100555.66;6283632;20;3582508;-47
2022/02/26 07:35:08;;;;;;;;;31.00;21.00;;;;;4.96;56.54;100561.06;6278265;20;2857644;-45
2022/02/26 07:37:36;;;;;;;;;25.67;22.00;;;;;5.29;55.73;100561.09;6280611;20;3571624;-42
2022/02/26 07:40:06;;;;;;;;;31.50;22.50;;;;;5.29;56.78;100561.09;6282684;20;2849272;-43
2022/02/26 07:42:34;;;;;;;;;35.00;30.00;;;;;5.50;56.76;100562.34;6281094;20;2500309;-43
2022/02/26 07:45:06;;;;;;;;;174.50;138.25;;;;;5.43;56.35;100563.44;6280712;20;4483593;-42
2022/02/26 07:47:36;;;;;;;;;51.67;41.67;;;;;5.37;55.71;100561.81;6280942;20;2877484;-45
2022/02/26 07:50:07;;;;;;;;;107.33;85.00;;;;;5.67;54.81;100564.56;6312677;20;3707646;-47
2022/02/26 07:52:35;;;;;;;;;33.00;24.00;;;;;5.83;54.63;100565.88;6274175;20;2856532;-44
2022/02/26 07:55:07;;;;;;;;;86.67;65.33;;;;;5.62;55.43;100570.00;6282924;20;3646207;-43
2022/02/26 07:57:36;;;;;;;;;65.00;50.00;;;;;5.43;55.49;100566.97;6313966;20;2871151;-46
2022/02/26 08:00:08;;;;;;;;;85.67;63.33;;;;;5.75;54.71;100570.56;6277086;20;3639851;-45
2022/02/26 08:02:36;;;;;;;;;24.00;19.67;;;;;5.70;55.77;100567.13;6314721;20;3563799;-46
2022/02/26 08:05:08;;;;;;;;;88.00;62.33;;;;;5.83;54.51;100573.88;6279169;20;3646298;-45
2022/02/26 08:07:36;;;;;;;;;56.50;47.50;;;;;6.20;54.97;100572.84;6312901;20;2853443;-45
2022/02/26 08:10:06;;;;;;;;;28.33;14.00;;;;;5.76;54.54;100577.63;6281215;20;3562863;-44
2022/02/26 08:12:36;;;;;;;;;60.33;45.33;;;;;5.96;54.58;100584.22;6313487;20;2874462;-46
2022/02/26 08:15:07;;;;;;;;;42.50;41.00;;;;;5.81;55.08;100578.38;6314974;20;2843015;-44
2022/02/26 08:17:36;;;;;;;;;58.00;46.00;;;;;6.16;54.32;100584.50;6283297;20;2867054;-46
2022/02/26 08:20:07;;;;;;;;;49.67;39.00;;;;;6.27;54.39;100587.75;6280845;20;3631501;-44
2022/02/26 08:22:35;;;;;;;;;38.00;27.00;;;;;6.40;53.83;100582.03;6314501;20;2864907;-46
2022/02/26 08:25:10;;;;;;;;;75.67;52.67;;;;;7.06;54.05;100588.88;6281014;20;3646092;-45
2022/02/26 08:27:41;;;;;;;;;49.67;40.00;;;;;7.06;52.72;100594.22;6314140;20;2889969;-44
2022/02/26 08:30:16;;;;;;;;;25.00;19.00;;;;;7.28;51.51;100588.16;6312207;20;2839861;-45
2022/02/26 08:32:46;;;;;;;;;36.00;26.33;;;;;7.16;51.18;100595.69;6282165;20;2868112;-45
2022/02/26 08:35:16;;;;;;;;;53.67;39.33;;;;;7.42;50.37;100593.91;6313846;20;3635020;-46
2022/02/26 08:37:46;;;;;;;;;31.50;25.00;;;;;7.50;50.03;100604.34;6312386;20;2859773;-45
2022/02/26 08:40:17;;;;;;;;;16.00;14.67;;;;;7.35;50.50;100590.59;6279943;20;3540972;-46
2022/02/26 08:42:46;;;;;;;;;17.33;17.00;;;;;7.63;50.60;100601.19;6313983;20;3553381;-46
2022/02/26 08:45:16;;;;;;;;;15.33;14.00;;;;;7.09;50.78;100593.25;6311723;20;3539847;-42
2022/02/26 08:47:46;;;;;;;;;22.50;17.33;;;;;7.29;50.71;100605.94;6335588;20;2819109;-44
2022/02/26 08:50:19;;;;;;;;;18.33;15.67;;;;;7.77;49.97;100602.53;6313462;20;3555581;-48
2022/02/26 08:52:48;;;;;;;;;19.00;13.00;;;;;8.39;48.33;100604.72;6282993;20;3550308;-45
2022/02/26 08:55:16;;;;;;;;;22.00;17.00;;;;;8.45;48.23;100603.59;6317201;20;2830534;-46
2022/02/26 08:57:45;;;;;;;;;17.33;16.00;;;;;8.19;46.88;100604.56;6285583;20;3551387;-45
2022/02/26 09:00:14;;;;;;;;;18.00;15.00;;;;;8.32;46.41;100601.38;6283899;20;2822253;-45
2022/02/26 09:02:43;;;;;;;;;16.00;12.00;;;;;8.33;47.09;100612.97;6287262;20;3546170;-42
2022/02/26 09:05:12;;;;;;;;;22.00;20.00;;;;;8.74;45.65;100614.09;6281861;20;2498262;-42
2022/02/26 09:07:41;;;;;;;;;15.33;12.33;;;;;8.81;47.10;100620.06;6286783;20;3538773;-45
2022/02/26 09:10:11;;;;;;;;;29.00;23.00;;;;;8.78;46.68;100620.19;6312621;20;2832552;-45
2022/02/26 09:12:39;;;;;;;;;14.00;14.00;;;;;8.12;46.58;100628.84;6287825;20;2803386;-45
2022/02/26 09:15:08;;;;;;;;;27.00;23.00;;;;;8.23;47.77;100623.13;6284472;20;2850309;-44
2022/02/26 09:17:37;;;;;;;;;24.67;21.00;;;;;8.08;47.84;100613.88;6283815;20;3581567;-46
2022/02/26 09:20:07;;;;;;;;;18.33;17.33;;;;;8.75;46.54;100620.31;6283025;20;3560726;-45
2022/02/26 09:22:37;;;;;;;;;17.00;16.67;;;;;8.67;46.75;100615.25;6314957;20;3547251;-44
2022/02/26 09:25:08;;;;;;;;;14.60;10.20;;;;;7.86;45.51;100623.56;6307236;20;2768010;-44
2022/02/26 09:27:36;;;;;;;;;7.00;6.00;;;;;8.32;44.44;100616.53;6280593;20;2752379;-44
2022/02/26 09:30:05;;;;;;;;;12.00;11.00;;;;;8.46;45.52;100619.63;6282288;20;2784647;-45
2022/02/26 09:32:34;;;;;;;;;16.00;12.00;;;;;8.45;43.87;100617.00;6283851;20;3522216;-45
2022/02/26 09:35:03;;;;;;;;;27.00;16.00;;;;;9.31;43.16;100625.19;6318113;20;2841906;-46
2022/02/26 09:37:32;;;;;;;;;21.00;19.33;;;;;8.26;44.32;100622.13;6281410;20;3572242;-46
2022/02/26 09:40:02;;;;;;;;;19.50;17.00;;;;;9.24;43.44;100618.31;6314540;20;2823221;-44
2022/02/26 09:42:31;;;;;;;;;16.00;15.00;;;;;8.98;43.71;100617.59;6285300;20;3483567;-46
2022/02/26 09:45:00;;;;;;;;;17.00;13.00;;;;;8.92;41.82;100620.50;6309971;20;3543957;-44
2022/02/26 09:47:29;;;;;;;;;6.50;6.00;;;;;9.18;42.84;100623.94;6318535;20;2744034;-45
2022/02/26 09:49:58;;;;;;;;;9.80;9.80;;;;;8.75;43.27;100626.53;6307329;20;2742015;-47
2022/02/26 09:52:29;;;;;;;;;10.00;8.00;;;;;8.60;44.09;100618.22;6317621;20;2748311;-45
2022/02/26 09:54:57;;;;;;;;;7.00;7.00;;;;;8.26;43.07;100617.66;6281377;20;2754466;-50
2022/02/26 09:57:30;;;;;;;;;17.00;12.00;;;;;8.99;43.37;100619.31;6288451;20;2823163;-50
2022/02/26 09:59:58;;;;;;;;;6.00;6.00;;;;;7.81;42.57;100614.84;6284042;20;2746133;-47
2022/02/26 10:02:35;;;;;;;;;15.80;12.60;;;;;8.66;42.85;100620.66;6309120;20;2809668;-46
2022/02/26 10:05:09;;;;;;;;;10.00;7.00;;;;;8.35;42.20;100627.16;6286081;20;2754478;-51
2022/02/26 10:07:39;;;;;;;;;14.00;13.50;;;;;8.88;41.69;100628.75;6280174;20;2787788;-48
2022/02/26 10:10:15;;;;;;;;;13.00;13.00;;;;;9.00;39.83;100623.78;6280771;20;3530472;-52
2022/02/26 10:12:58;;;;;;;;;6.00;6.00;;;;;9.09;39.60;100625.19;6335385;20;1817017;-50
2022/02/26 10:15:39;;;;;;;;;8.00;5.00;;;;;8.81;38.83;100627.22;6317407;20;2748221;-51
2022/02/26 10:18:14;;;;;;;;;7.50;5.50;;;;;8.79;38.37;100617.47;6285426;20;2736710;-47
2022/02/26 10:20:58;;;;;;;;;5.50;2.50;;;;;8.66;38.29;100620.66;6319409;20;2739865;-47
2022/02/26 10:23:29;;;;;;;;;7.50;4.00;;;;;8.43;38.62;100629.59;6316525;20;2754446;-48
2022/02/26 10:26:11;;;;;;;;;2.00;1.00;;;;;9.08;38.03;100635.97;6287530;20;2727552;-50
2022/02/26 10:28:41;;;;;;;;;3.00;3.00;;;;;9.31;38.00;100630.53;6313026;20;1813019;-49
2022/02/26 10:31:11;;;;;;;;;4.50;2.75;;;;;9.30;36.80;100627.94;6332017;20;1813505;-46
2022/02/26 10:33:40;;;;;;;;;3.00;2.00;;;;;8.82;36.79;100632.53;6340319;20;1818083;-48
2022/02/26 10:36:10;;;;;;;;;15.00;10.00;;;;;8.95;37.19;100628.44;6318310;20;2784658;-54
2022/02/26 10:38:39;;;;;;;;;4.75;4.75;;;;;8.95;37.15;100631.13;6310138;20;1812786;-51
2022/02/26 10:41:12;;;;;;;;;4.00;4.00;;;;;9.29;37.55;100632.41;6337437;20;1823258;-50
2022/02/26 10:43:50;;;;;;;;;7.50;7.50;;;;;8.93;36.82;100645.50;6339387;20;1810855;-52
2022/02/26 10:46:26;;;;;;;;;3.00;3.00;;;;;8.91;36.89;100636.66;6319927;20;2756696;-54
2022/02/26 10:49:09;;;;;;;;;1.25;1.25;;;;;8.66;36.76;100626.00;6307430;20;1814354;-46
2022/02/26 10:51:42;;;;;;;;;1.00;1.00;;;;;9.55;35.96;100628.66;6334015;20;1809663;-46
2022/02/26 10:54:27;;;;;;;;;2.50;2.50;;;;;9.48;35.65;100626.28;6336860;20;1812934;-43
2022/02/26 10:57:04;;;;;;;;;3.75;2.00;;;;;9.04;35.59;100635.22;6336192;20;1816163;-44
2022/02/26 10:59:41;;;;;;;;;0.00;0.00;;;;;8.92;35.88;100627.66;6335277;20;1809699;-43
2022/02/26 11:02:22;;;;;;;;;4.00;2.00;;;;;9.20;35.59;100627.44;6333705;20;1809772;-44
2022/02/26 11:04:53;;;;;;;;;2.00;2.00;;;;;8.89;36.90;100622.44;6319029;20;2754454;-44
2022/02/26 11:07:23;;;;;;;;;8.50;8.50;;;;;9.50;35.94;100622.59;6284151;20;2755475;-43
2022/02/26 11:09:52;;;;;;;;;3.25;3.25;;;;;9.62;36.62;100623.91;6300403;20;1817905;-45
2022/02/26 11:12:27;;;;;;;;;5.00;4.25;;;;;8.97;36.86;100623.00;6334185;20;1809696;-44
2022/02/26 11:15:01;;;;;;;;;4.00;3.00;;;;;9.53;36.10;100618.91;6319482;20;2749790;-45
2022/02/26 11:17:31;;;;;;;;;6.50;4.00;;;;;9.61;35.96;100622.16;6289186;20;2752566;-45
2022/02/26 11:20:03;;;;;;;;;8.25;6.50;;;;;10.35;35.82;100625.19;6302818;20;1806582;-44
2022/02/26 11:22:32;;;;;;;;;0.00;0.00;;;;;9.25;35.66;100622.78;6339081;20;1805553;-45